FMNM/MJN METAR and TAF weather

Enter ICAO airport designator
Station Type Date Time Source
FMNM METAR 2020/11/27 15:00 UTC NOAA

FMNM 271500Z 30013KT 9999 FEW020CB 30/24 Q1010 NOSIG


Station Type Date Time Source
FMNM Decoded METAR 2020/11/27 15:00 UTC NOAA

Majunga, Madagascar (FMNM) 15-40S 046-21E 18M
Nov 27, 2020 - 10:00 AM EST / 2020.11.27 1500 UTC
Wind: from the WNW (300 degrees) at 15 MPH (13 KT):0
Visibility: greater than 7 mile(s):0
Sky conditions: mostly clear
Weather: Cumulonimbus clouds observed
Temperature: 86 F (30 C)
Heat index: 95.0 F (35.0 C):1
Dew Point: 75 F (24 C)
Relative Humidity: 70%
Pressure (altimeter): 29.83 in. Hg (1010 hPa)
ob: FMNM 271500Z 30013KT 9999 FEW020CB 30/24 Q1010 NOSIG
cycle: 15

Station Type Date Time Source
FMNM TAF 2020/11/27 12:00 UTC NOAA

TAF FMNM 271100Z 2712/2812 32010KT 9999 SCT020CB
BECMG 2720/2722 06004KT
BECMG 2803/2805 FEW020

Example: see airport list